Pahrump, Nevada Weather observations

Data are for observation ending at time listed.
 Day   Time    Ave.   Ave.  Ave.  Vector   Max.   Stn.    Total    Solar   Ave.  
  of    of     Air    Rel.  Wind   Wind    Wind   Baro.  Precip.   Rad.    Soil  
Year   Day     Temp.  Hum.  Speed  Dir.    Gust   Pres.                    Temp. 
2026   (PST)    F      %     mph   deg.    mph     mb.     in.     W/m2     F   
------------------------------------------------------------------------------
 121   10:40   79.2    13    0.1   298      0.1   922.8    0.00     914    76.1
 121   10:50   79.8    13    2.2   311      6.4   922.8    0.00     926    76.7
 121   11:00   78.9    13    6.0   289     19.0   922.7    0.00     936    77.2
 121   11:10   79.3    13    4.5   311     11.7   922.6    0.00     946    77.7
 121   11:20   80.1    13    2.7   273      6.9   922.5    0.00     954    78.3
 121   11:30   80.9    13    4.4   347     12.3   922.4    0.00     967    78.8
 121   11:40   80.3    13    5.5   264     15.8   922.2    0.00     967    79.2
 121   11:50   82.0    12    8.9   308     17.8   922.2    0.00     974    79.7
 121   12:00   82.1    12    8.5   344     18.0   922.2    0.00     968    80.1
 121   12:10   81.2    12    8.5   310     17.2   922.2    0.00     965    80.5
 121   12:20   81.4    11   10.6   336     25.1   922.1    0.00     962    80.8
 121   12:30   81.3    10    7.3   319     15.1   922.1    0.00     960    81.0
 121   12:40   81.8    11    6.0   325     15.3   922.0    0.00     953    81.3
 121   12:50   81.7    11    8.6   299     13.8   922.1    0.00     943    81.6
 121   13:00   82.8    11    6.9   327     15.1   922.0    0.00     932    81.8
 121   13:10   82.6    10    9.6   327     19.0   921.9    0.00     920    82.0
 121   13:20   82.8    10    8.4   336     16.7   921.8    0.00     905    82.3
 121   13:30   82.4    10    8.4   342     15.9   921.6    0.00     888    82.6
 121   13:40   82.9    10    7.1   346     14.8   921.5    0.00     873    82.8
 121   13:50   83.8    10    7.6   322     16.8   921.4    0.00     855    83.0
 121   14:00   83.8    10    8.3   334     18.6   921.4    0.00     836    83.0
 121   14:10   83.6    10    9.0   332     18.2   921.4    0.00     814    82.9
 121   14:20   83.6    10    8.5   333     17.2   921.3    0.00     795    82.7
 121   14:30   83.7    10    5.1   354     14.0   921.2    0.00     771    82.5
 121   14:40   83.5    10    8.7   320     15.6   921.1    0.00     746    82.3
 121   14:50   83.5    10    8.2   328     17.7   920.9    0.00     718    82.1
 121   15:00   82.9    10    8.4   353     15.8   920.9    0.00     699    81.9
 121   15:10   83.3    10    8.3   347     13.7   920.7    0.00     679    81.8
 121   15:20   83.4    10   11.1   315     21.2   920.5    0.00     637    81.8
 121   15:30   83.4    10    9.4   323     15.8   920.4    0.00     599    81.9
 121   15:40   83.2    10   10.2   322     17.2   920.4    0.00     559    82.1
 121   15:50   83.5    10    7.0   321     14.5   920.4    0.00     538    82.3
 121   16:00   83.4    10    9.6   334     20.9   920.3    0.00     506    82.5
 121   16:10   83.2    10    8.0   324     14.1   920.2    0.00     474    82.6
 121   16:20   83.0    10    8.8   325     15.1   920.1    0.00     441    82.8
 121   16:30   82.9    10    5.9    17     14.7   920.1    0.00     408    82.9
 121   16:40   83.5    10    4.7     4     12.1   920.1    0.00     374    83.0
 121   16:50   83.0    10    4.2    19     10.2   920.1    0.00     337    83.0
 121   17:00   82.8    10    6.0    30     17.0   920.1    0.00     302    83.0
 121   17:10   82.2    10    6.5    46     16.2   920.0    0.00     268    83.0
 121   17:20   82.1    10    4.5    41     11.3   920.0    0.00     234    83.0
 121   17:30   81.4    10    5.7    45     14.0   919.9    0.00     200    83.0
 121   17:40   80.7    10    5.9    46     13.7   919.9    0.00     164    83.0
 121   17:50   80.7    10    5.7    40     14.8   919.9    0.00     137    82.8
 121   18:00   80.2    10    5.1    45     12.7   919.8    0.00      83    82.7
 121   18:10   79.9    10    5.8    58      9.9   919.7    0.00      64    82.5
 121   18:20   79.5    10    2.7    54     10.2   919.7    0.00      37    82.4
 121   18:30   78.7    10    0.6    36      7.6   919.7    0.00      12    82.2
 121   18:40   78.2    10    3.3    54     14.2   919.6    0.00       4    82.0
 121   18:50   77.7    10    4.1    58     13.1   919.6    0.00       1    81.8
 121   19:00   77.1    11    0.0    78      0.1   919.6    0.00       0    81.6
 121   19:10   76.7    11    0.0    72      0.1   919.6    0.00       0    81.4
 121   19:20   76.4    11    0.0    93      0.1   919.5    0.00       0    81.2
 121   19:30   76.0    11    0.0     0      0.0   919.6    0.00       0    80.9
 121   19:40   75.1    11    0.0     0      0.0   919.7    0.00       0    80.7
 121   19:50   75.1    11    7.4    93     15.9   919.8    0.00       0    80.5
 121   20:00   74.9    11   10.1    90     17.1   919.9    0.00       0    80.3
 121   20:10   74.5    12   10.9    93     17.0   920.0    0.00       0    80.1
 121   20:20   73.9    12   11.6    88     20.2   920.1    0.00       0    79.9
 121   20:30   73.8    11   12.1    79     19.0   920.1    0.00       0    79.8
 121   20:40   73.9    11    8.1    87     14.9   920.2    0.00       0    79.6
 121   20:50   74.5    11    7.7    83     12.9   920.2    0.00       0    79.4
 121   21:00   73.9    11    8.9    85     12.9   920.3    0.00       0    79.3
 121   21:10   74.0    11   11.6    82     16.9   920.3    0.00       0    79.2
 121   21:20   74.0    11    9.0    86     15.6   920.4    0.00       0    79.0
 121   21:30   74.2    11   10.9    86     18.0   920.4    0.00       0    78.8
 121   21:40   73.7    11   10.8    85     16.7   920.5    0.00       0    78.7
 121   21:50   73.5    11    9.9    93     15.3   920.5    0.00       0    78.6
 121   22:00   73.0    11    3.5   116     10.2   920.7    0.00       0    78.4
 121   22:10   71.8    12    1.8   221      7.0   920.7    0.00       0    78.3
 121   22:20   71.5    12    0.8   286      1.6   920.6    0.00       0    78.2
 121   22:30   71.1    12    3.8   210     10.4   920.5    0.00       0    78.0
 121   22:40   73.0    11    4.2   186     10.5   920.5    0.00       0    77.9
 121   22:50   72.0    11    5.3   164      8.8   920.5    0.00       0    77.7
 121   23:00   72.0    12    5.1   147     10.1   920.6    0.00       0    77.5
 121   23:10   70.2    13    1.9   211      4.6   920.6    0.00       0    77.4
 121   23:20   67.7    14    2.9   219      6.1   920.6    0.00       0    77.3
 121   23:30   67.4    14    2.2   200      5.2   920.5    0.00       0    77.1
 121   23:40   66.7    14    2.2   241      4.1   920.5    0.00       0    76.9
 121   23:50   67.2    14    3.0   194      6.8   920.4    0.00       0    76.8
 122    0:00   67.5    13    2.7   128      5.1   920.4    0.00       0    76.6
 122    0:10   65.2    15    0.8     8      2.9   920.4    0.00       0    76.5
 122    0:20   63.7    15    0.0   356      0.1   920.4    0.00       0    76.3
 122    0:30   64.6    15    0.0   289      0.1   920.3    0.00       0    76.1
 122    0:40   65.2    14    0.0   332      0.1   920.2    0.00       0    76.0
 122    0:50   64.5    14    0.0     0      0.0   920.1    0.00       0    75.8
 122    1:00   63.6    16    0.5   336      2.5   920.1    0.00       0    75.7
 122    1:10   63.5    15    0.7    41      1.6   920.0    0.00       0    75.5
 122    1:20   62.7    17    0.5   317      1.8   920.0    0.00       0    75.4
 122    1:30   61.9    17    0.0    34      0.7   919.9    0.00       0    75.2
 122    1:40   61.1    16    0.0     0      0.0   919.7    0.00       0    75.0
 122    1:50   61.1    16    0.0     0      0.0   919.6    0.00       0    74.9
 122    2:00   61.0    16    0.8    56      3.0   919.5    0.00       0    74.7
 122    2:10   61.7    15    2.5    64      4.0   919.5    0.00       0    74.6
 122    2:20   61.1    16    0.8    34      3.5   919.5    0.00       0    74.4
 122    2:30   59.8    17    0.9    46      3.1   919.5    0.00       0    74.3
 122    2:40   58.7    18    0.9    62      1.8   919.6    0.00       0    74.1
 122    2:50   58.4    19    1.5   170      4.2   919.5    0.00       0    74.0
 122    3:00   58.5    18    1.5   158      2.7   919.5    0.00       0    73.8
 122    3:10   58.9    17    0.9   158      2.0   919.5    0.00       0    73.7
 122    3:20   58.6    18    0.5   126      1.4   919.6    0.00       0    73.5
 122    3:30   58.4    18    1.2   100      2.3   919.6    0.00       0    73.4
 122    3:40   58.4    18    0.3   188      1.8   919.7    0.00       0    73.3
 122    3:50   57.2    18    0.5   133      3.1   919.7    0.00       0    73.1
 122    4:00   57.4    18    1.2    88      3.6   919.7    0.00       0    73.0
 122    4:10   58.0    18    1.2    99      2.6   919.7    0.00       0    72.8
 122    4:20   58.4    17    1.8    73      5.6   919.7    0.00       0    72.7
 122    4:30   59.3    16    2.0    90      4.5   919.8    0.00       0    72.6
 122    4:40   59.0    16    3.8    92      7.1   919.8    0.00       0    72.5
 122    4:50   59.5    16    4.2    90      6.8   919.9    0.00       3    72.3
 122    5:00   60.2    15    3.3    89      6.3   920.1    0.00       6    72.2
 122    5:10   59.8    16    2.8    90      5.6   920.2    0.00      12    72.1
 122    5:20   59.8    16    2.4    71      4.2   920.3    0.00      19    72.0
 122    5:30   60.2    15    2.1    70      5.6   920.3    0.00      47    71.9
 122    5:40   61.8    14    4.0    76      6.5   920.4    0.00      42    71.8
 122    5:50   62.9    14    1.5    82      5.6   920.6    0.00      71    71.7
 122    6:00   62.0    18    0.1   296      1.9   920.9    0.00      94    71.6
 122    6:10   60.0    20    0.3   294      2.0   921.1    0.00     161    71.5
 122    6:20   62.6    18    0.1   328      1.4   921.1    0.00     189    71.5
 122    6:30   64.7    17    0.0   330      0.1   921.2    0.00     185    71.4
 122    6:40   65.4    16    0.0   355      0.1   921.4    0.00     267    71.3
 122    6:50   65.3    18    0.1   355      0.1   921.6    0.00     316    71.3
 122    7:00   66.1    18    0.1   355      1.5   921.8    0.00     335    71.2
 122    7:10   66.8    16    0.0   212      0.1   922.1    0.00     352    71.2
 122    7:20   67.5    16    0.1   349      0.1   922.3    0.00     407    71.2
 122    7:30   69.5    14    0.2   354      1.2   922.5    0.00     448    71.2
 122    7:40   71.2    12    0.2   349      2.0   922.7    0.00     485    71.2
 122    7:50   71.4    13    1.0   348      4.4   922.9    0.00     490    71.2
 122    8:00   71.6    13    1.2   170      3.7   923.1    0.00     546    71.2
 122    8:10   73.0    13    1.6   148      3.1   923.2    0.00     581    71.2
 122    8:20   73.4    12    0.8    77      1.8   923.4    0.00     617    71.2
 122    8:30   74.1    12    1.2    93      3.0   923.6    0.00     622    71.3
 122    8:40   75.5    11    0.2   310      1.8   923.7    0.00     671    71.6
 122    8:50   76.7    11    1.7   298      4.3   923.8    0.00     712    71.9
 122    9:00   76.9    10    1.7   329      2.9   923.8    0.00     734    72.3
 122    9:10   78.1    10    2.0   328      5.3   923.9    0.00     746    72.7
 122    9:20   77.7    11    2.7   304      5.3   923.9    0.00     607    73.1
 122    9:30   77.2    11    1.6    30      5.2   923.9    0.00     693    73.5
 122    9:40   77.2    10    3.9    81      6.9   923.9    0.00     830    73.9
 122    9:50   78.3    10    2.7   163      7.5   923.8    0.00     843    74.2
 122   10:00   80.0    10    1.9    97      5.1   923.8    0.00     860    74.7
 122   10:10   79.9    10    3.8    92      8.7   923.8    0.00     877    75.1
 122   10:20   80.4    10    2.0   346      4.6   923.7    0.00     894    75.6
 122   10:30   82.7     9    4.5   151     10.5   923.8    0.00     910    76.1

Return to Pahrump, Nevada graphs page.


Western Regional Climate Center,wrcc@dri.edu